METAR AND TAF INFORMATION
METAR FOR KOZR
ADDS - METARS form results

(2130 UTC 28 February 2021)
Data provider http://aviationweather.gov/metar/data/
 
METAR text: KOZR 282056Z AUTO 21011KT 10SM FEW043 FEW055 SCT075 SCT190 27/17 A3004 RMK AO2 SLP172 T02680170 57027
Conditions at: KOZR (OZARK/CAIRNS AAF, AL, US) observed 2056 UTC 28 February 2021
Temperature: 26.8°C (80°F)
Dewpoint: 17.0°C (63°F) [RH = 55%]
Pressure (altimeter): 30.04 inches Hg (1017.4 mb)
[Sea-level pressure: 1017.2 mb]
Winds: from the SSW (210 degrees) at 13 MPH (11 knots; 5.7 m/s)
Visibility: 10 or more miles (16+ km)
Ceiling: at least 12,000 feet AGL
Clouds: few clouds at 4300 feet AGL
few clouds at 5500 feet AGL
scattered clouds at 7500 feet AGL
scattered clouds at 19000 feet AGL
Weather: automated observation with no human augmentation;
there may or may not be significant weather present at this time

METAR text: KOZR 282050Z AUTO 21012KT 10SM FEW040 FEW055 SCT200 27/17 A3004 RMK AO2 SLP172 57029
Conditions at: KOZR (OZARK/CAIRNS AAF, AL, US) observed 2050 UTC 28 February 2021
Temperature: 27.0°C (81°F)
Dewpoint: 17.0°C (63°F) [RH = 54%]
Pressure (altimeter): 30.04 inches Hg (1017.4 mb)
[Sea-level pressure: 1017.2 mb]
Winds: from the SSW (210 degrees) at 14 MPH (12 knots; 6.2 m/s)
Visibility: 10 or more miles (16+ km)
Ceiling: at least 12,000 feet AGL
Clouds: few clouds at 4000 feet AGL
few clouds at 5500 feet AGL
scattered clouds at 20000 feet AGL
Weather: automated observation with no human augmentation;
there may or may not be significant weather present at this time

 AIRPORT MAP

 RUNWAY INFORMATION
Runway 06 Runway length 4500 ft Runway width 150 ft
Runway elevation 296 ft Runway displaced threshold 0 ft Runway heading 61
Runway 24 Runway length 4500 ft Runway width 150 ft
Runway elevation 295 ft Runway displaced threshold 0 ft Runway heading 241
Runway 14 Runway length 4500 ft Runway width 150 ft
Runway elevation 0 ft Runway displaced threshold 0 ft Runway heading 134
Runway 32 Runway length 4500 ft Runway width 150 ft
Runway elevation 0 ft Runway displaced threshold 0 ft Runway heading 314
Runway 18 Runway length 5000 ft Runway width 150 ft
Runway elevation 301 ft Runway displaced threshold 0 ft Runway heading 181
Runway 36 Runway length 5000 ft Runway width 150 ft
Runway elevation 296 ft Runway displaced threshold 0 ft Runway heading 1

 AIRPORT FREQUENCIES
Type A/D Name APP/DEP Frequency 121.1 MHZ
Type ATIS Name ATIS Frequency 111.2 MHZ
Type CLD Name CLNC DEL Frequency 118.075 MHZ
Type CTAF Name CTAF Frequency 135.2 MHZ
Type GND Name GND Frequency 121.9 MHZ
Type OPS Name OPS Frequency 126.2 MHZ
Type PMSV Name PMSV METRO Frequency 134.1 MHZ
Type TWR Name TWR Frequency 135.2 MHZ

 AIRPORT NEAR NAVIGATION AIDS
Type NDB Name Boll Weevil Frequency 352 KHZ
Type NDB Name Ruckr Frequency 212 KHZ
Type VOR-DME Name Cairns Frequency 111200 KHZ